Tiempo atmosférico en la estación meteorológica de Pedraza de Alba, Salamanca (897 m.)



Fecha
DESCASC
Temp. máxima en grados centígrados (hora)
DESCASC
Temp. mínima en grados centígrados (hora)
DESCASC
Temp. media en grados centígrados
DESCASC
Racha de viento máxima en m/sg (hora)
DESCASC
Velocidad máxima media en intervalos de 10 minutos(hora)
DESCASC
Precipitaciones diarias en mm
DESCASC
Precipitaciones de 00:00 a 06:00 en mm
DESCASC
Precipitaciones de 06:00 a 12:00 en mm
DESCASC
Precipitaciones de 12:00 a 18:00 en mm
DESCASC
Precipitaciones de 18:00 a 24:00 en mm
DESCASC
15-07-2018 24.2 (17:30) 11.9 (05:20) 18.1 10.28 (18:00) 5.56 (14:20) 0 0 0 0 0
14-07-2018 28.6 (16:30) 12.3 (06:30) 20.5 9.17 (16:20) 5 (17:10) 0 0 0 0 0
13-07-2018 30.3 (16:30) 12.4 (07:30) 21.3 9.44 (17:30) 5 (18:40) 0 0 0 0 0
12-07-2018 29.2 (18:50) 10.6 (00:00) 19.9 10.56 (18:40) 3.89 (19:30) 0 0 0 0 0
11-07-2018 26.9 (17:20) 15.6 (00:00) 21.3 11.67 (09:50) 6.11 (10:00) 0 0 0 0 0
10-07-2018 31.5 (16:50) 12.4 (00:00) 21.9 8.06 (15:10) 4.17 (15:20) 0 0 0 0 0
09-07-2018 31 (17:40) 11.1 (00:00) 21.1 7.78 (15:00) 3.61 (21:30) 0 0 0 0 0
08-07-2018 30.7 (16:50) 11.5 (07:00) 21.1 8.33 (18:10) 4.44 (17:40) 0 0 0 0 0
07-07-2018 29.4 (18:10) 10.2 (00:00) 19.8 9.17 (18:10) 5 (18:40) 0 0 0 0 0
06-07-2018 27.2 (18:50) 10.6 (00:00) 18.9 6.39 (14:40) 3.06 (14:40) 0 0 0 0 0
05-07-2018 24.5 (19:10) 12.6 (03:50) 18.6 6.11 (16:10) 2.78 (15:00) 0 0 0 0 0
04-07-2018 22.8 (17:50) 10.7 (07:20) 16.7 10 (16:00) 5.56 (19:20) 0 0 0 0 0
03-07-2018 25.6 (17:30) 11.6 (02:20) 18.6 9.17 (18:20) 4.44 (17:50) 0 0 0 0 0
02-07-2018 22.5 (15:50) 9.6 (07:30) 16.1 11.39 (17:40) 6.94 (17:40) 0 0 0 0 0
01-07-2018 23.7 (15:50) 10.5 (00:00) 17.1 12.22 (16:00) 5.83 (19:00) 0 0 0 0 0
30-06-2018 25.4 (17:20) 14.8 (23:50) 20.1 11.67 (14:20) 6.67 (14:40) 0.2 0 0.2 0 0
29-06-2018 28.7 (17:40) 13.2 (00:00) 21 7.5 (15:00) 3.61 (20:40) 0 0 0 0 0
28-06-2018 28.4 (17:40) 11 (00:00) 19.7 6.94 (19:00) 4.17 (19:00) 0 0 0 0 0
27-06-2018 27.5 (19:00) 13 (00:00) 20.3 8.06 (17:30) 4.44 (16:40) 0 0 0 0 0
26-06-2018 30.2 (15:30) 14.7 (00:00) 22.5 8.61 (19:50) 5.28 (20:30) 0 0 0 0 0
25-06-2018 32.1 (15:40) 15.9 (00:00) 24 8.89 (21:40) 5 (21:40) 0.4 0 0 0 0.4
24-06-2018 33.8 (17:10) 13 (00:00) 23.4 6.67 (13:50) 3.33 (15:10) 0 0 0 0 0
23-06-2018 32.3 (16:20) 12.3 (00:00) 22.3 8.89 (17:20) 4.72 (17:20) 0.4 0 0 0.4 0
22-06-2018 31.1 (18:00) 11.8 (06:40) 21.5 7.5 (13:50) 3.61 (15:50) 0 0 0 0 0
21-06-2018 29.4 (13:40) 13.3 (00:00) 21.3 10 (17:50) 5.83 (17:50) 0 0 0 0 0
20-06-2018 30.6 (14:40) 12.6 (00:00) 21.6 8.61 (17:20) 3.61 (17:30) 0 0 0 0 0
19-06-2018 28.9 (18:20) 10.9 (00:00) 19.9 6.11 (18:00) 3.33 (01:00) 0 0 0 0 0
18-06-2018 27.5 (16:50) 9.5 (00:00) 18.5 9.17 (11:30) 5 (11:30) 0 0 0 0 0
17-06-2018 26.8 (17:10) 7.2 (00:00) 17 7.22 (14:40) 3.89 (18:00) 0 0 0 0 0

Gráficas

Temp. máximas Temp. mínimas Temp. medias Precipitaciones Rachas de viento máximas Velocidades máximas media en intervalos de 10 minutos

Datos horarios

Fecha y hora oficial Temperatura (ºC) Velocidad del viento (km/h) Dirección del viento Racha (km/h) Dirección de racha Precipitación (mm) Presión (hPa) Tendencia (hPa) Humedad (%)
2018-07-16 23:00:00 16.8 4 Sur 5 Sur 0 -- -- 57
2018-07-16 22:00:00 21.6 0 Calma 6 Norte 0 -- -- 42
2018-07-16 21:00:00 24.2 6 Norte 13 Norte 0 -- -- 34
2018-07-16 20:00:00 25.2 9 Norte 17 Norte 0 -- -- 31
2018-07-16 19:00:00 25.2 10 Norte 23 Norte 0 -- -- 33
2018-07-16 18:00:00 25.9 14 Norte 28 Noroeste 0 -- -- 34
2018-07-16 17:00:00 25 11 Norte 21 Oeste 0 -- -- 36
2018-07-16 16:00:00 24.8 11 Noroeste 26 Noroeste 0 -- -- 37
2018-07-16 15:00:00 23.6 6 Norte 22 Noroeste 0 -- -- 41
2018-07-16 14:00:00 21.9 7 Oeste 20 Sudoeste 0 -- -- 49
2018-07-16 13:00:00 20.5 8 Oeste 18 Noroeste 0 -- -- 54
2018-07-16 12:00:00 18.5 7 Noroeste 23 Sudoeste 0 -- -- 61
2018-07-16 11:00:00 16.5 4 Oeste 13 Sudoeste 0 -- -- 72
2018-07-16 10:00:00 15.1 6 Sudoeste 16 Sudoeste 0 -- -- 79
2018-07-16 09:00:00 14.3 8 Sudoeste 19 Sudoeste 0 -- -- 84
2018-07-16 08:00:00 13 5 Sudoeste 13 Sudoeste 0 -- -- 89
2018-07-16 07:00:00 11 2 Sur 8 Sur 0 -- -- 88
2018-07-16 06:00:00 11.5 3 Sur 10 Sudoeste 0 -- -- 85
2018-07-16 05:00:00 13 6 Sudoeste 14 Sudoeste 0 -- -- 81
2018-07-16 04:00:00 13.4 6 Sudoeste 13 Sudoeste 0 -- -- 80
2018-07-16 03:00:00 13.1 4 Sudoeste 8 Sur 0 -- -- 80
2018-07-16 02:00:00 14 2 Sur 14 Sudoeste 0 -- -- 72
2018-07-16 01:00:00 15.4 8 Sudoeste 17 Sudoeste 0 -- -- 67
2018-07-16 00:00:00 16.9 9 Oeste 28 Oeste 0 -- -- 60
2018-07-15 23:00:00 17.3 7 Sudoeste 14 Sudoeste 0 -- -- 50
2018-07-15 22:00:00 19.5 7 Sudoeste 26 Sudoeste 0 -- -- 41
2018-07-15 21:00:00 21.3 13 Sudoeste 30 Sudoeste 0 -- -- 39
2018-07-15 20:00:00 23 15 Sudoeste 30 Sudoeste 0 -- -- 35
2018-07-15 19:00:00 23.7 15 Sudoeste 37 Sudoeste 0 -- -- 32
2018-07-15 18:00:00 24.1 19 Sudoeste 37 Sudoeste 0 -- -- 31
2018-07-15 17:00:00 23.9 20 Sudoeste 33 Sudoeste 0 -- -- 29
2018-07-15 16:00:00 23.8 18 Oeste 34 Oeste 0 -- -- 34
2018-07-15 15:00:00 23.6 18 Oeste 37 Sudoeste 0 -- -- 37
2018-07-15 14:00:00 23.5 17 Oeste 33 Oeste 0 -- -- 35
2018-07-15 13:00:00 23.3 13 Sudoeste 28 Oeste 0 -- -- 36
2018-07-15 12:00:00 22.2 15 Sudoeste 29 Sudoeste 0 -- -- 40
2018-07-15 11:00:00 20.7 17 Sudoeste 28 Sudoeste 0 -- -- 49
2018-07-15 10:00:00 19.4 15 Sudoeste 26 Sudoeste 0 -- -- 55
2018-07-15 09:00:00 17.5 8 Sudoeste 16 Sudoeste 0 -- -- 68
2018-07-15 08:00:00 14.8 8 Sudoeste 14 Sudoeste 0 -- -- 87
2018-07-15 07:00:00 13 6 Sudoeste 10 Oeste 0 -- -- 92
2018-07-15 06:00:00 11.9 0 Calma 7 Sudeste 0 -- -- 79
2018-07-15 05:00:00 12 4 Sudeste 7 Sudeste 0 -- -- 76
2018-07-15 04:00:00 13.1 4 Sur 8 Sur 0 -- -- 69
2018-07-15 03:00:00 14.3 3 Norte 12 Sudoeste 0 -- -- 60
2018-07-15 02:00:00 15.4 4 Sur 10 Sur 0 -- -- 54
2018-07-15 01:00:00 14.8 4 Sur 7 Sudoeste 0 -- -- 56
2018-07-15 00:00:00 17 4 Sur 10 Sudoeste 0 -- -- 48
2018-07-14 23:00:00 20.3 8 Sudoeste 15 Oeste 0 -- -- 38
2018-07-14 22:00:00 22.8 3 Oeste 21 Sudoeste 0 -- -- 28
2018-07-14 21:00:00 25.5 13 Sudoeste 26 Sudoeste 0 -- -- 24
2018-07-14 20:00:00 27.2 13 Sur 30 Sur 0 -- -- 24
2018-07-14 19:00:00 28.3 15 Sudoeste 33 Sudoeste 0 -- -- 24
2018-07-14 18:00:00 28.3 17 Sudoeste 33 Oeste 0 -- -- 24
2018-07-14 17:00:00 28.2 13 Oeste 33 Oeste 0 -- -- 29
2018-07-14 16:00:00 28.2 17 Oeste 33 Sudoeste 0 -- -- 29
2018-07-14 15:00:00 27.8 14 Oeste 33 Sudoeste 0 -- -- 33
2018-07-14 14:00:00 27.6 12 Oeste 22 Oeste 0 -- -- 29
2018-07-14 13:00:00 26.9 13 Oeste 23 Oeste 0 -- -- 29
2018-07-14 12:00:00 25.6 6 Oeste 19 Sudoeste 0 -- -- 35
2018-07-14 11:00:00 24.5 8 Oeste 19 Sudoeste 0 -- -- 42
2018-07-14 10:00:00 23.2 10 Oeste 21 Oeste 0 -- -- 49
2018-07-14 09:00:00 18.6 0 Calma 5 Sudoeste 0 -- -- 72
2018-07-14 08:00:00 14.3 3 Sudoeste 8 Oeste 0 -- -- 82
2018-07-14 07:00:00 13 4 Sur 10 Sur 0 -- -- 87
2018-07-14 06:00:00 12.5 0 Calma 5 Sur 0 -- -- 88
2018-07-14 05:00:00 12.6 3 Sur 5 Sur 0 -- -- 88
2018-07-14 04:00:00 13.5 0 Calma 3 Sur 0 -- -- 83
2018-07-14 03:00:00 14.7 0 Calma 5 Sur 0 -- -- 81
2018-07-14 02:00:00 16.3 3 Sur 5 Sur 0 -- -- 75
2018-07-14 01:00:00 18.7 0 Calma 15 Norte 0 -- -- 68
2018-07-14 00:00:00 20 12 Norte 19 Noroeste 0 -- -- 60
2018-07-13 23:00:00 21.9 4 Sudoeste 9 Sudoeste 0 -- -- 50
2018-07-13 22:00:00 24.4 3 Oeste 21 Sudoeste 0 -- -- 43
2018-07-13 21:00:00 26.5 10 Oeste 23 Sudoeste 0 -- -- 37
2018-07-13 20:00:00 28.2 12 Sudoeste 29 Oeste 0 -- -- 33
2018-07-13 19:00:00 28.6 17 Oeste 33 Oeste 0 -- -- 35
2018-07-13 18:00:00 29.3 18 Sudoeste 34 Sudoeste 0 -- -- 34
2018-07-13 17:00:00 30.1 14 Sudoeste 27 Sudoeste 0 -- -- 30
2018-07-13 16:00:00 30 10 Sudoeste 24 Sudoeste 0 -- -- 29
2018-07-13 15:00:00 29.3 12 Oeste 22 Sudoeste 0 -- -- 30
2018-07-13 14:00:00 28.6 9 Oeste 24 Oeste 0 -- -- 33
2018-07-13 13:00:00 27.7 10 Noroeste 26 Oeste 0 -- -- 34
2018-07-13 12:00:00 26.5 6 Sudoeste 18 Oeste 0 -- -- 39
2018-07-13 11:00:00 23.5 6 Oeste 14 Oeste 0 -- -- 49
2018-07-13 10:00:00 20.2 5 Norte 8 Norte 0 -- -- 62
2018-07-13 09:00:00 16.6 2 Noroeste 5 Noroeste 0 -- -- 71
2018-07-13 08:00:00 13.2 0 Calma 8 Sur 0 -- -- 75
2018-07-13 07:00:00 12.6 3 Sur 8 Oeste 0 -- -- 75
2018-07-13 06:00:00 13 3 Sur 6 Sudeste 0 -- -- 76
2018-07-13 05:00:00 13.4 3 Sur 5 Sudoeste 0 -- -- 74
2018-07-13 04:00:00 13.3 0 Calma 8 Sudoeste 0 -- -- 72
2018-07-13 03:00:00 13.9 3 Sur 5 Sur 0 -- -- 72
2018-07-13 02:00:00 15.3 0 Calma 6 Sur 0 -- -- 66
2018-07-13 01:00:00 17.3 4 Sur 9 Sudoeste 0 -- -- 60
2018-07-13 00:00:00 18.9 4 Sudeste 8 Este 0 -- -- 55
2018-07-12 23:00:00 22.4 0 Calma 10 Este 0 -- -- 44
2018-07-12 22:00:00 24.3 4 Oeste 14 Sudoeste 0 -- -- 39
2018-07-12 21:00:00 26.7 11 Sudoeste 23 Sudoeste 0 -- -- 33
2018-07-12 20:00:00 28.2 12 Oeste 26 Sudoeste 0 -- -- 30
2018-07-12 19:00:00 29 13 Oeste 38 Sudoeste 0 -- -- 29
2018-07-12 18:00:00 27.9 5 Noroeste 19 Oeste 0 -- -- 30
2018-07-12 17:00:00 27.6 4 Nordeste 18 Norte 0 -- -- 32
2018-07-12 16:00:00 29.1 6 Nordeste 22 Norte 0 -- -- 29
2018-07-12 15:00:00 28.5 7 Nordeste 19 Sudeste 0 -- -- 32
2018-07-12 14:00:00 27.5 5 Este 18 Nordeste 0 -- -- 33
2018-07-12 13:00:00 26.6 7 Noroeste 25 Nordeste 0 -- -- 36
2018-07-12 12:00:00 25 11 Norte 21 Norte 0 -- -- 41
2018-07-12 11:00:00 23.4 11 Norte 20 Nordeste 0 -- -- 44
2018-07-12 10:00:00 20.2 9 Nordeste 16 Nordeste 0 -- -- 58
2018-07-12 09:00:00 15.7 5 Norte 10 Norte 0 -- -- 76
2018-07-12 08:00:00 11.4 0 Calma 5 Este 0 -- -- 87
2018-07-12 07:00:00 10.8 0 Calma 5 Norte 0 -- -- 87
2018-07-12 06:00:00 11.2 0 Calma 5 Noroeste 0 -- -- 84
2018-07-12 05:00:00 12.3 0 Calma 5 Noroeste 0 -- -- 79
2018-07-12 04:00:00 13.5 0 Calma 3 Sur 0 -- -- 75
2018-07-12 03:00:00 15.9 2 Noroeste 9 Nordeste 0 -- -- 69
2018-07-12 02:00:00 16.9 5 Nordeste 16 Nordeste 0 -- -- 65
2018-07-12 01:00:00 18.6 7 Nordeste 17 Nordeste 0 -- -- 59
2018-07-12 00:00:00 19.9 8 Nordeste 21 Nordeste 0 -- -- 53
2018-07-11 23:00:00 20.7 10 Norte 18 Norte 0 -- -- 47
2018-07-11 22:00:00 22.5 12 Norte 24 Norte 0 -- -- 41
2018-07-11 21:00:00 24.4 18 Norte 24 Norte 0 -- -- 38
2018-07-11 20:00:00 25.7 12 Norte 26 Noroeste 0 -- -- 37
2018-07-11 19:00:00 25.5 15 Noroeste 29 Noroeste 0 -- -- 38
2018-07-11 18:00:00 26.2 7 Norte 25 Norte 0 -- -- 36
2018-07-11 17:00:00 26.3 10 Norte 27 Norte 0 -- -- 36
2018-07-11 16:00:00 26.6 18 Norte 36 Norte 0 -- -- 38
2018-07-11 15:00:00 26.6 13 Norte 29 Norte 0 -- -- 39
2018-07-11 14:00:00 25.5 13 Norte 35 Norte 0 -- -- 38
2018-07-11 13:00:00 24.7 17 Norte 31 Noroeste 0 -- -- 41
2018-07-11 12:00:00 22.7 6 Nordeste 15 Nordeste 0 -- -- 52
2018-07-11 11:00:00 20.3 6 Norte 28 Nordeste 0 -- -- 57
2018-07-11 10:00:00 19 22 Norte 42 Norte 0 -- -- 62
2018-07-11 09:00:00 19.8 4 Sudoeste 12 Sudoeste 0 -- -- 67
2018-07-11 08:00:00 17.1 5 Oeste 22 Oeste 0 -- -- 68
2018-07-11 07:00:00 16.9 3 Sudoeste 17 Nordeste 0 -- -- 67
2018-07-11 06:00:00 15.9 4 Sudoeste 7 Sudoeste 0 -- -- 73
2018-07-11 05:00:00 15.9 2 Oeste 6 Sudoeste 0 -- -- 70
2018-07-11 04:00:00 16.6 4 Sur 7 Sudeste 0 -- -- 69
2018-07-11 03:00:00 16.8 4 Sur 9 Sudoeste 0 -- -- 66
2018-07-11 02:00:00 18.6 4 Sur 14 Sudoeste 0 -- -- 58
2018-07-11 01:00:00 18.3 0 Calma 6 Sur 0 -- -- 60
2018-07-11 00:00:00 21 0 Calma 8 Sur 0 -- -- 53
2018-07-10 23:00:00 24.6 0 Calma 5 Norte 0 -- -- 44
2018-07-10 22:00:00 26.7 2 Nordeste 15 Norte 0 -- -- 36
2018-07-10 21:00:00 28.3 9 Norte 14 Norte 0 -- -- 33
2018-07-10 20:00:00 29.2 8 Norte 15 Norte 0 -- -- 31
2018-07-10 19:00:00 28.8 8 Norte 15 Norte 0 -- -- 31
2018-07-10 18:00:00 29.4 5 Norte 17 Nordeste 0 -- -- 29
2018-07-10 17:00:00 31.1 14 Norte 26 Norte 0 -- -- 28
2018-07-10 16:00:00 30.1 13 Norte 29 Nordeste 0 -- -- 30
2018-07-10 15:00:00 29.9 10 Nordeste 21 Norte 0 -- -- 31
2018-07-10 14:00:00 29.9 11 Nordeste 21 Noroeste 0 -- -- 31
2018-07-10 13:00:00 28.5 12 Nordeste 28 Nordeste 0 -- -- 34
2018-07-10 12:00:00 27.5 11 Nordeste 23 Nordeste 0 -- -- 37
2018-07-10 11:00:00 24.8 9 Norte 19 Nordeste 0 -- -- 46
2018-07-10 10:00:00 21.3 8 Nordeste 13 Nordeste 0 -- -- 57
2018-07-10 09:00:00 17.7 7 Nordeste 10 Nordeste 0 -- -- 72
2018-07-10 08:00:00 13.1 0 Calma 3 Sudeste 0 -- -- 83
2018-07-10 07:00:00 12.9 0 Calma 2 Noroeste 0 -- -- 80
2018-07-10 06:00:00 14.5 0 Calma 5 Nordeste 0 -- -- 74
2018-07-10 05:00:00 15.9 4 Norte 8 Norte 0 -- -- 72
2018-07-10 04:00:00 17.6 2 Nordeste 8 Nordeste 0 -- -- 65
2018-07-10 03:00:00 19.1 5 Nordeste 22 Este 0 -- -- 60
2018-07-10 02:00:00 19.8 7 Este 15 Este 0 -- -- 57
2018-07-10 01:00:00 20.4 6 Nordeste 17 Nordeste 0 -- -- 54
2018-07-10 00:00:00 21.2 6 Este 10 Este 0 -- -- 48
2018-07-09 23:00:00 23.1 6 Nordeste 10 Nordeste 0 -- -- 43
2018-07-09 22:00:00 25.7 6 Nordeste 23 Norte 0 -- -- 37
2018-07-09 21:00:00 28.9 11 Norte 20 Noroeste 0 -- -- 28
2018-07-09 20:00:00 30.6 7 Noroeste 17 Noroeste 0 -- -- 22
2018-07-09 19:00:00 30.7 9 Norte 27 Norte 0 -- -- 22
2018-07-09 18:00:00 30.9 9 Norte 23 Norte 0 -- -- 23
2018-07-09 17:00:00 30.7 8 Norte 22 Norte 0 -- -- 25
2018-07-09 16:00:00 30.4 8 Oeste 27 Noroeste 0 -- -- 28
2018-07-09 15:00:00 28.5 7 Noroeste 28 Norte 0 -- -- 32
2018-07-09 14:00:00 28.6 8 Norte 20 Norte 0 -- -- 32
2018-07-09 13:00:00 27.8 10 Noroeste 19 Norte 0 -- -- 38
2018-07-09 12:00:00 25.6 7 Norte 14 Noroeste 0 -- -- 43
2018-07-09 11:00:00 23.1 7 Nordeste 13 Noroeste 0 -- -- 54
2018-07-09 10:00:00 20 4 Norte 9 Norte 0 -- -- 67
2018-07-09 09:00:00 15.7 4 Norte 7 Norte 0 -- -- 82
2018-07-09 08:00:00 12.1 0 Calma 4 Sur 0 -- -- 91
2018-07-09 07:00:00 11.2 0 Calma 4 Sudoeste 0 -- -- 89
2018-07-09 06:00:00 12 0 Calma 4 Sur 0 -- -- 87
2018-07-09 05:00:00 12.9 2 Sur 5 Sur 0 -- -- 89
2018-07-09 04:00:00 13.5 3 Sur 4 Sur 0 -- -- 86
2018-07-09 03:00:00 14.3 3 Sur 4 Sur 0 -- -- 83
2018-07-09 02:00:00 16 3 Sudoeste 5 Sur 0 -- -- 78
2018-07-09 01:00:00 18.3 2 Sur 9 Norte 0 -- -- 71
2018-07-09 00:00:00 20 8 Norte 10 Nordeste 0 -- -- 65
2018-07-08 23:00:00 22.4 4 Nordeste 24 Nordeste 0 -- -- 56
2018-07-08 22:00:00 25.3 7 Sudoeste 15 Sudoeste 0 -- -- 37
2018-07-08 21:00:00 28 8 Oeste 24 Sudoeste 0 -- -- 30
2018-07-08 20:00:00 29.9 11 Oeste 25 Sudoeste 0 -- -- 28
2018-07-08 19:00:00 30.3 15 Sudoeste 30 Oeste 0 -- -- 28
2018-07-08 18:00:00 30.7 13 Sudoeste 30 Oeste 0 -- -- 29
2018-07-08 17:00:00 29.7 13 Sudoeste 30 Oeste 0 -- -- 31
2018-07-08 16:00:00 28.9 9 Oeste 21 Sudoeste 0 -- -- 33
2018-07-08 15:00:00 29.8 7 Noroeste 20 Oeste 0 -- -- 31
2018-07-08 14:00:00 29.4 5 Sur 23 Oeste 0 -- -- 31
2018-07-08 13:00:00 28.6 7 Norte 21 Noroeste 0 -- -- 33
2018-07-08 12:00:00 26.7 7 Norte 17 Norte 0 -- -- 42
2018-07-08 11:00:00 23.4 5 Noroeste 11 Norte 0 -- -- 57
2018-07-08 10:00:00 20.2 4 Norte 9 Norte 0 -- -- 68
2018-07-08 09:00:00 15.7 2 Nordeste 4 Este 0 -- -- 85
2018-07-08 08:00:00 12.5 0 Calma 3 Norte 0 -- -- 90
2018-07-08 07:00:00 11.5 2 Sur 5 Sur 0 -- -- 92
2018-07-08 06:00:00 12.2 2 Norte 4 Norte 0 -- -- 88
2018-07-08 05:00:00 13.2 2 Sur 6 Sur 0 -- -- 89
2018-07-08 04:00:00 13.6 5 Sur 8 Noroeste 0 -- -- 89
2018-07-08 03:00:00 15.7 4 Oeste 9 Noroeste 0 -- -- 79
2018-07-08 02:00:00 17 0 Calma 6 Este 0 -- -- 77
2018-07-08 01:00:00 18.1 4 Este 13 Este 0 -- -- 71
2018-07-08 00:00:00 19.7 3 Norte 13 Norte 0 -- -- 56
2018-07-07 23:00:00 21.6 10 Norte 23 Norte 0 -- -- 51
2018-07-07 22:00:00 23.4 0 Calma 16 Norte 0 -- -- 44
2018-07-07 21:00:00 26.8 7 Oeste 25 Oeste 0 -- -- 34
2018-07-07 20:00:00 28.7 11 Oeste 28 Oeste 0 -- -- 29
2018-07-07 19:00:00 29 14 Oeste 33 Oeste 0 -- -- 30
2018-07-07 18:00:00 29.1 13 Oeste 28 Oeste 0 -- -- 30
2018-07-07 17:00:00 28.9 11 Sudoeste 24 Sudoeste 0 -- -- 32
2018-07-07 16:00:00 27.8 8 Noroeste 30 Sudoeste 0 -- -- 35
2018-07-07 15:00:00 27.8 5 Norte 24 Oeste 0 -- -- 31
2018-07-07 14:00:00 27.6 8 Oeste 27 Oeste 0 -- -- 34
2018-07-07 13:00:00 27.1 6 Sur 14 Sur 0 -- -- 35
2018-07-07 12:00:00 25.9 4 Norte 11 Noroeste 0 -- -- 43
2018-07-07 11:00:00 23.3 4 Nordeste 9 Nordeste 0 -- -- 50
2018-07-07 10:00:00 20.2 3 Nordeste 7 Norte 0 -- -- 59
2018-07-07 09:00:00 16 3 Norte 6 Norte 0 -- -- 75
2018-07-07 08:00:00 11.9 0 Calma 6 Sur 0 -- -- 88
2018-07-07 07:00:00 10.5 0 Calma 5 Sur 0 -- -- 86
2018-07-07 06:00:00 11.6 0 Calma 4 Sudeste 0 -- -- 84
2018-07-07 05:00:00 12.2 3 Sur 6 Sur 0 -- -- 83
2018-07-07 04:00:00 12.5 2 Sur 6 Sur 0 -- -- 81
2018-07-07 03:00:00 14.2 0 Calma 6 Sur 0 -- -- 75
2018-07-07 02:00:00 15.1 2 Sur 7 Sudeste 0 -- -- 72
2018-07-07 01:00:00 16.2 3 Sur 7 Sur 0 -- -- 67
2018-07-07 00:00:00 17.6 2 Sur 5 Sur 0 -- -- 64
2018-07-06 23:00:00 20 2 Este 9 Noroeste 0 -- -- 57
2018-07-06 22:00:00 23.6 7 Noroeste 12 Oeste 0 -- -- 41
2018-07-06 21:00:00 24.4 3 Sudeste 11 Sudeste 0 -- -- 44
2018-07-06 20:00:00 25.6 3 Este 16 Nordeste 0 -- -- 36
2018-07-06 19:00:00 26.8 8 Nordeste 15 Norte 0 -- -- 33
2018-07-06 18:00:00 26.7 0 Calma 14 Oeste 0 -- -- 34
2018-07-06 17:00:00 26 8 Oeste 18 Oeste 0 -- -- 36
2018-07-06 16:00:00 25.9 9 Noroeste 18 Oeste 0 -- -- 36
2018-07-06 15:00:00 26.3 6 Noroeste 23 Oeste 0 -- -- 34
2018-07-06 14:00:00 26.3 8 Sur 18 Noroeste 0 -- -- 35
2018-07-06 13:00:00 24.4 5 Noroeste 15 Sudoeste 0 -- -- 39
2018-07-06 12:00:00 23.2 4 Norte 12 Nordeste 0 -- -- 42
2018-07-06 11:00:00 20.9 5 Nordeste 10 Norte 0 -- -- 51
2018-07-06 10:00:00 18.7 3 Noroeste 9 Noroeste 0 -- -- 60
2018-07-06 09:00:00 15 0 Calma 4 Sur 0 -- -- 77
2018-07-06 08:00:00 11.9 0 Calma 3 Sudeste 0 -- -- 84
2018-07-06 07:00:00 11.1 0 Calma 6 Sur 0 -- -- 83
2018-07-06 06:00:00 11.4 0 Calma 8 Sudeste 0 -- -- 82
2018-07-06 05:00:00 10.8 3 Sur 7 Sudeste 0 -- -- 83
2018-07-06 04:00:00 10.7 3 Sur 5 Sudeste 0 -- -- 83
2018-07-06 03:00:00 11.4 2 Sur 5 Sur 0 -- -- 79
2018-07-06 02:00:00 11.7 5 Sur 6 Sudeste 0 -- -- 76
2018-07-06 01:00:00 12.9 2 Sudoeste 7 Sudeste 0 -- -- 71
2018-07-06 00:00:00 14.6 4 Sur 8 Sur 0 -- -- 65
2018-07-05 23:00:00 16.9 2 Sur 4 Sur 0 -- -- 57
2018-07-05 22:00:00 20.3 2 Norte 10 Noroeste 0 -- -- 43
2018-07-05 21:00:00 22.6 6 Noroeste 11 Noroeste 0 -- -- 37
2018-07-05 20:00:00 22.8 4 Norte 17 Noroeste 0 -- -- 36
2018-07-05 19:00:00 24.4 8 Nordeste 16 Norte 0 -- -- 35
2018-07-05 18:00:00 23.5 4 Nordeste 15 Norte 0 -- -- 36
2018-07-05 17:00:00 24 8 Nordeste 22 Este 0 -- -- 38
2018-07-05 16:00:00 24.3 8 Norte 21 Nordeste 0 -- -- 37
2018-07-05 15:00:00 22.3 10 Norte 17 Norte 0 -- -- 42
2018-07-05 14:00:00 21.6 9 Nordeste 17 Nordeste 0 -- -- 45
2018-07-05 13:00:00 19.9 5 Sudoeste 18 Nordeste 0 -- -- 55
2018-07-05 12:00:00 17.9 6 Norte 13 Noroeste 0 -- -- 65
2018-07-05 11:00:00 16.1 4 Este 12 Norte 0 -- -- 72
2018-07-05 10:00:00 15.4 7 Norte 13 Norte 0 -- -- 77
2018-07-05 09:00:00 14.5 6 Noroeste 10 Noroeste 0 -- -- 81
2018-07-05 08:00:00 13.8 3 Oeste 10 Oeste 0 -- -- 83
2018-07-05 07:00:00 13.5 6 Sudoeste 12 Sudoeste 0 -- -- 84
2018-07-05 06:00:00 13.6 6 Sudoeste 11 Sudoeste 0 -- -- 83
2018-07-05 05:00:00 13.3 4 Sudoeste 10 Sudoeste 0 -- -- 84
2018-07-05 04:00:00 12.8 8 Sudoeste 11 Sudoeste 0 -- -- 84
2018-07-05 03:00:00 13.2 3 Sudoeste 11 Sudoeste 0 -- -- 80
2018-07-05 02:00:00 13.5 5 Sudoeste 10 Sudoeste 0 -- -- 78
2018-07-05 01:00:00 13.8 6 Sudoeste 13 Sudoeste 0 -- -- 75
2018-07-05 00:00:00 14.6 5 Sur 13 Sudoeste 0 -- -- 71
2018-07-04 23:00:00 16 7 Sudoeste 21 Oeste 0 -- -- 65
2018-07-04 22:00:00 17.6 9 Oeste 25 Oeste 0 -- -- 59
2018-07-04 21:00:00 19.5 15 Oeste 31 Oeste 0 -- -- 51
2018-07-04 20:00:00 21.2 17 Oeste 36 Noroeste 0 -- -- 44
2018-07-04 19:00:00 22 18 Oeste 33 Oeste 0 -- -- 38
2018-07-04 18:00:00 22.7 18 Oeste 32 Oeste 0 -- -- 36
2018-07-04 17:00:00 22.2 16 Oeste 36 Oeste 0 -- -- 37
2018-07-04 16:00:00 22 17 Oeste 36 Sudoeste 0 -- -- 40
2018-07-04 15:00:00 21.8 15 Oeste 31 Sudoeste 0 -- -- 43
2018-07-04 14:00:00 21.9 16 Oeste 35 Oeste 0 -- -- 44
2018-07-04 13:00:00 20.6 12 Oeste 29 Sudoeste 0 -- -- 50
2018-07-04 12:00:00 20.1 13 Oeste 30 Oeste 0 -- -- 56
2018-07-04 11:00:00 18.7 13 Oeste 21 Noroeste 0 -- -- 62
2018-07-04 10:00:00 16.5 9 Oeste 17 Oeste 0 -- -- 71
2018-07-04 09:00:00 14.7 7 Oeste 13 Sudoeste 0 -- -- 79
2018-07-04 08:00:00 11.6 0 Calma 5 Sur 0 -- -- 95
2018-07-04 07:00:00 10.9 3 Sur 8 Sudoeste 0 -- -- 91
2018-07-04 06:00:00 12.4 5 Sudoeste 8 Sudoeste 0 -- -- 90
2018-07-04 05:00:00 12.5 3 Sur 5 Sudoeste 0 -- -- 88
2018-07-04 04:00:00 13.6 3 Sur 9 Sur 0 -- -- 85
2018-07-04 03:00:00 13.4 3 Sur 10 Sudoeste 0 -- -- 82
2018-07-04 02:00:00 14 6 Sudoeste 10 Sudoeste 0 -- -- 77
2018-07-04 01:00:00 14.6 6 Sudoeste 13 Oeste 0 -- -- 74
2018-07-04 00:00:00 15.2 3 Sur 7 Sur 0 -- -- 72
2018-07-03 23:00:00 17.6 4 Sur 7 Sudoeste 0 -- -- 62
2018-07-03 22:00:00 21.5 4 Oeste 20 Oeste 0 -- -- 48
2018-07-03 21:00:00 23.4 9 Oeste 22 Sudoeste 0 -- -- 43
2018-07-03 20:00:00 24.6 14 Oeste 26 Sudoeste 0 -- -- 39
2018-07-03 19:00:00 25.6 12 Oeste 33 Oeste 0 -- -- 37
2018-07-03 18:00:00 25.4 15 Oeste 28 Oeste 0 -- -- 38
2018-07-03 17:00:00 25.3 14 Sudoeste 31 Sudoeste 0 -- -- 37
2018-07-03 16:00:00 24.8 11 Oeste 31 Oeste 0 -- -- 40
2018-07-03 15:00:00 24.4 13 Oeste 29 Sudoeste 0 -- -- 40
2018-07-03 14:00:00 23.6 11 Sudoeste 24 Sudoeste 0 -- -- 35
2018-07-03 13:00:00 22.7 5 Noroeste 22 Oeste 0 -- -- 40
2018-07-03 12:00:00 21.7 6 Sudeste 15 Oeste 0 -- -- 44
2018-07-03 11:00:00 19.7 5 Norte 11 Sudeste 0 -- -- 54
2018-07-03 10:00:00 18.3 5 Este 14 Sur 0 -- -- 69
2018-07-03 09:00:00 15.4 2 Este 6 Este 0 -- -- 83
2018-07-03 08:00:00 13.7 0 Calma 4 Noroeste 0 -- -- 90
2018-07-03 07:00:00 13.5 0 Calma 2 Este 0 -- -- 87
2018-07-03 06:00:00 13.7 0 Calma 3 Sudeste 0 -- -- 88
2018-07-03 05:00:00 13.2 0 Calma 3 Sur 0 -- -- 89
2018-07-03 04:00:00 13.4 0 Calma 4 Sur 0 -- -- 86
2018-07-03 03:00:00 12.6 0 Calma 4 Sur 0 -- -- 90
2018-07-03 02:00:00 11.9 2 Sur 5 Sur 0 -- -- 87
2018-07-03 01:00:00 13.1 2 Noroeste 8 Sudeste 0 -- -- 82
2018-07-03 00:00:00 14.4 0 Calma 12 Oeste 0 -- -- 79
2018-07-02 23:00:00 16.2 5 Sudoeste 12 Sudoeste 0 -- -- 72
2018-07-02 22:00:00 17.9 8 Sudoeste 24 Oeste 0 -- -- 64
2018-07-02 21:00:00 19.9 13 Oeste 31 Sudoeste 0 -- -- 54
2018-07-02 20:00:00 21.2 15 Sudoeste 37 Sudoeste 0 -- -- 52
2018-07-02 19:00:00 21.8 19 Oeste 35 Oeste 0 -- -- 46
2018-07-02 18:00:00 22 20 Sudoeste 41 Sudoeste 0 -- -- 46
2018-07-02 17:00:00 22 21 Sudoeste 39 Sudoeste 0 -- -- 48
2018-07-02 16:00:00 22.4 19 Sudoeste 36 Sudoeste 0 -- -- 48
2018-07-02 15:00:00 21.2 12 Sudoeste 34 Sudoeste 0 -- -- 50
2018-07-02 14:00:00 21.4 16 Oeste 35 Oeste 0 -- -- 50
2018-07-02 13:00:00 20.5 18 Sudoeste 32 Sudoeste 0 -- -- 51
2018-07-02 12:00:00 20.1 11 Sudoeste 28 Oeste 0 -- -- 54
2018-07-02 11:00:00 18.4 9 Sudoeste 20 Sudoeste 0 -- -- 59
2018-07-02 10:00:00 16.8 10 Sudoeste 24 Sudoeste 0 -- -- 67
2018-07-02 09:00:00 14.7 8 Sudoeste 15 Sudoeste 0 -- -- 82
2018-07-02 08:00:00 11.8 8 Sudoeste 15 Sudoeste 0 -- -- 93
2018-07-02 07:00:00 10.2 3 Sur 6 Sur 0 -- -- 93
2018-07-02 06:00:00 11.1 4 Sur 10 Sudeste 0 -- -- 91
2018-07-02 05:00:00 11.4 4 Sur 8 Sur 0 -- -- 91
2018-07-02 04:00:00 10.7 3 Sudoeste 5 Sudoeste 0 -- -- 89
2018-07-02 03:00:00 11.2 0 Calma 5 Sur 0 -- -- 86
2018-07-02 02:00:00 12.4 3 Sur 8 Sur 0 -- -- 85
2018-07-02 01:00:00 13.6 4 Sur 8 Sudoeste 0 -- -- 80
2018-07-02 00:00:00 15.4 5 Sudoeste 14 Sudoeste 0 -- -- 74
2018-07-01 23:00:00 17.1 6 Sudoeste 14 Sudoeste 0 -- -- 64
2018-07-01 22:00:00 18.2 9 Sudoeste 22 Sudoeste 0 -- -- 57
2018-07-01 21:00:00 19.7 11 Oeste 24 Sudoeste 0 -- -- 50
2018-07-01 20:00:00 21.5 17 Sudoeste 34 Sudoeste 0 -- -- 43
2018-07-01 19:00:00 21.7 21 Sudoeste 36 Sudoeste 0 -- -- 44
2018-07-01 18:00:00 22 20 Sudoeste 36 Sudoeste 0 -- -- 44
2018-07-01 17:00:00 21.8 21 Sudoeste 37 Oeste 0 -- -- 47
2018-07-01 16:00:00 23.7 20 Sudoeste 44 Sudoeste 0 -- -- 34
2018-07-01 15:00:00 22.5 17 Sudoeste 32 Sudoeste 0 -- -- 46
2018-07-01 14:00:00 22.1 14 Sudoeste 33 Sudoeste 0 -- -- 48
2018-07-01 13:00:00 21.6 19 Sudoeste 31 Sudoeste 0 -- -- 51
2018-07-01 12:00:00 20.4 9 Sudoeste 27 Oeste 0 -- -- 56
2018-07-01 11:00:00 18.7 14 Sudoeste 22 Sudoeste 0 -- -- 62
2018-07-01 10:00:00 16.1 12 Sudoeste 29 Sudoeste 0 -- -- 77
2018-07-01 09:00:00 15.5 11 Sudoeste 19 Sudoeste 0 -- -- 84
2018-07-01 08:00:00 12.4 0 Calma 6 Sur 0 -- -- 89
2018-07-01 07:00:00 10.5 2 Este 7 Oeste 0 -- -- 88
2018-07-01 06:00:00 12 4 Sudoeste 11 Sur 0 -- -- 87
2018-07-01 05:00:00 12 4 Sur 10 Sur 0 -- -- 83
2018-07-01 04:00:00 12.4 4 Sur 9 Sur 0 -- -- 81
2018-07-01 03:00:00 13 2 Sur 6 Sudeste 0 -- -- 83
2018-07-01 02:00:00 14.1 2 Sur 13 Sudoeste 0 -- -- 79
2018-07-01 01:00:00 15.3 8 Sudoeste 15 Sudoeste 0 -- -- 73
2018-07-01 00:00:00 14.9 4 Sur 12 Sudeste 0 -- -- 77
2018-06-30 23:00:00 16.2 6 Sur 16 Sur 0 -- -- 72
2018-06-30 22:00:00 17 7 Sur 27 Sudoeste 0 -- -- 69
2018-06-30 21:00:00 18.1 16 Sudoeste 33 Sudoeste 0 -- -- 63
2018-06-30 20:00:00 20.2 14 Sudoeste 28 Sudoeste 0 -- -- 58
2018-06-30 19:00:00 21.9 17 Oeste 25 Oeste 0 -- -- 53
2018-06-30 18:00:00 23.6 16 Sudoeste 35 Sudoeste 0 -- -- 36
2018-06-30 17:00:00 25 16 Sur 35 Sur 0 -- -- 36
2018-06-30 16:00:00 22.9 15 Sudoeste 32 Sudoeste 0 -- -- 44
2018-06-30 15:00:00 20.5 19 Sudoeste 42 Sudoeste 0 -- -- 53
2018-06-30 14:00:00 20.6 22 Sudoeste 39 Sudoeste 0 -- -- 57
2018-06-30 13:00:00 21.3 14 Sudoeste 32 Oeste 0 -- -- 43
2018-06-30 12:00:00 23.2 20 Sudoeste 36 Sudoeste 0 -- -- 39
2018-06-30 11:00:00 19.8 9 Sudoeste 28 Sudoeste 0 -- -- 56
2018-06-30 10:00:00 18.9 7 Sudoeste 13 Sudoeste 0.2 -- -- 68
2018-06-30 09:00:00 18.3 4 Sur 14 Sudoeste 0 -- -- 66
2018-06-30 08:00:00 17.6 3 Sudoeste 10 Sudoeste 0 -- -- 64
2018-06-30 07:00:00 17.3 4 Sudoeste 10 Sudoeste 0 -- -- 62
2018-06-30 06:00:00 16.9 4 Oeste 10 Oeste 0 -- -- 70
2018-06-30 05:00:00 16.8 4 Sudoeste 10 Noroeste 0 -- -- 72
2018-06-30 04:00:00 16.7 5 Sur 9 Sudoeste 0 -- -- 70
2018-06-30 03:00:00 16 2 Sur 5 Sudeste 0 -- -- 73
2018-06-30 02:00:00 17.5 4 Sur 8 Sur 0 -- -- 68
2018-06-30 01:00:00 18.6 4 Sur 6 Sudeste 0 -- -- 64
2018-06-30 00:00:00 18.1 3 Sur 6 Sur 0 -- -- 64
2018-06-29 23:00:00 18.4 3 Sur 4 Sur 0 -- -- 59
2018-06-29 22:00:00 23.1 0 Calma 19 Oeste 0 -- -- 42
2018-06-29 21:00:00 25.5 9 Oeste 21 Sudoeste 0 -- -- 37
2018-06-29 20:00:00 27 10 Oeste 22 Oeste 0 -- -- 34
2018-06-29 19:00:00 26.4 4 Sur 21 Sudoeste 0 -- -- 35
2018-06-29 18:00:00 28 9 Sur 21 Sudeste 0 -- -- 30
2018-06-29 17:00:00 28.4 11 Sur 23 Sudoeste 0 -- -- 28
2018-06-29 16:00:00 27.5 9 Sudeste 23 Sudeste 0 -- -- 30
2018-06-29 15:00:00 26.2 8 Sur 27 Oeste 0 -- -- 32
2018-06-29 14:00:00 25.9 5 Sudoeste 14 Sudoeste 0 -- -- 34
2018-06-29 13:00:00 25.8 5 Oeste 16 Sudeste 0 -- -- 36
2018-06-29 12:00:00 24.4 6 Sudoeste 15 Sur 0 -- -- 34
2018-06-29 11:00:00 24 3 Noroeste 9 Norte 0 -- -- 38
2018-06-29 10:00:00 20.6 5 Norte 8 Noroeste 0 -- -- 62
2018-06-29 09:00:00 16.9 3 Norte 5 Norte 0 -- -- 80
2018-06-29 08:00:00 13.5 0 Calma 8 Sudoeste 0 -- -- 91
2018-06-29 07:00:00 13.3 3 Sur 6 Sudoeste 0 -- -- 91
2018-06-29 06:00:00 14.3 0 Calma 3 Sudeste 0 -- -- 90
2018-06-29 05:00:00 14.3 0 Calma 6 Sur 0 -- -- 89
2018-06-29 04:00:00 14.6 0 Calma 6 Sudeste 0 -- -- 88
2018-06-29 03:00:00 15.9 3 Norte 6 Nordeste 0 -- -- 84
2018-06-29 02:00:00 16.4 0 Calma 6 Noroeste 0 -- -- 80
2018-06-29 01:00:00 16.3 4 Noroeste 9 Norte 0 -- -- 78
2018-06-29 00:00:00 18.5 6 Noroeste 25 Noroeste 0 -- -- 61
2018-06-28 23:00:00 19.3 3 Sudoeste 13 Sudeste 0 -- -- 56
2018-06-28 22:00:00 21 6 Sudeste 20 Sudeste 0 -- -- 48
2018-06-28 21:00:00 24.5 10 Sudoeste 24 Sudoeste 0 -- -- 36
2018-06-28 20:00:00 25.7 14 Sudoeste 25 Sudoeste 0 -- -- 37
2018-06-28 19:00:00 26.6 15 Sudoeste 25 Sudoeste 0 -- -- 36
2018-06-28 18:00:00 28 9 Sudoeste 21 Sudoeste 0 -- -- 28
2018-06-28 17:00:00 27.6 8 Sudoeste 18 Sudoeste 0 -- -- 30
2018-06-28 16:00:00 27.1 6 Oeste 19 Noroeste 0 -- -- 31
2018-06-28 15:00:00 26 8 Sudoeste 18 Sur 0 -- -- 34
2018-06-28 14:00:00 25.3 3 Nordeste 10 Este 0 -- -- 33
2018-06-28 13:00:00 24.8 4 Sur 15 Este 0 -- -- 36
2018-06-28 12:00:00 23.4 8 Norte 16 Nordeste 0 -- -- 46
2018-06-28 11:00:00 20.6 5 Nordeste 10 Nordeste 0 -- -- 61
2018-06-28 10:00:00 18.6 4 Nordeste 15 Norte 0 -- -- 69
2018-06-28 09:00:00 16.4 3 Norte 8 Norte 0 -- -- 78
2018-06-28 08:00:00 12.5 2 Sur 6 Sur 0 -- -- 86
2018-06-28 07:00:00 11 3 Sur 6 Sur 0 -- -- 89
2018-06-28 06:00:00 11.7 3 Sur 5 Sur 0 -- -- 84
2018-06-28 05:00:00 13.5 3 Sur 4 Sudoeste 0 -- -- 78
2018-06-28 04:00:00 13.7 3 Sur 5 Sur 0 -- -- 75
2018-06-28 03:00:00 13 3 Sudeste 7 Sur 0 -- -- 76
2018-06-28 02:00:00 13 3 Sur 8 Sur 0 -- -- 74
2018-06-28 01:00:00 14 4 Sur 7 Sur 0 -- -- 69
2018-06-28 00:00:00 15.3 4 Sur 6 Sudeste 0 -- -- 64
2018-06-27 23:00:00 17.7 2 Sur 10 Oeste 0 -- -- 55
2018-06-27 22:00:00 22 4 Noroeste 21 Oeste 0 -- -- 39
2018-06-27 21:00:00 24.9 11 Noroeste 21 Oeste 0 -- -- 34
2018-06-27 20:00:00 26.6 10 Noroeste 21 Sudoeste 0 -- -- 36
2018-06-27 19:00:00 27.5 7 Oeste 27 Sudoeste 0 -- -- 22
2018-06-27 18:00:00 27.2 14 Oeste 29 Sudoeste 0 -- -- 24
2018-06-27 17:00:00 26.9 16 Oeste 28 Sudoeste 0 -- -- 25
2018-06-27 16:00:00 26.8 13 Oeste 26 Oeste 0 -- -- 28
2018-06-27 15:00:00 26.3 13 Oeste 24 Oeste 0 -- -- 33
2018-06-27 14:00:00 25.9 10 Sudoeste 21 Noroeste 0 -- -- 36
2018-06-27 13:00:00 24.6 9 Oeste 20 Oeste 0 -- -- 41
2018-06-27 12:00:00 22.4 7 Oeste 16 Oeste 0 -- -- 52
2018-06-27 11:00:00 20.2 4 Oeste 13 Oeste 0 -- -- 64
2018-06-27 10:00:00 18.6 5 Noroeste 13 Oeste 0 -- -- 75
2018-06-27 09:00:00 16 7 Oeste 11 Sudoeste 0 -- -- 85
2018-06-27 08:00:00 13.8 0 Calma 6 Norte 0 -- -- 92
2018-06-27 07:00:00 13.2 0 Calma 6 Sudeste 0 -- -- 91
2018-06-27 06:00:00 13.7 2 Sur 8 Sudeste 0 -- -- 89
2018-06-27 05:00:00 14.3 3 Sur 6 Sur 0 -- -- 89
2018-06-27 04:00:00 15.3 3 Sur 10 Sur 0 -- -- 85
2018-06-27 03:00:00 16.7 5 Sudoeste 19 Sudoeste 0 -- -- 81
2018-06-27 02:00:00 16.9 5 Sudoeste 12 Sudoeste 0 -- -- 81
2018-06-27 01:00:00 17.4 3 Sudeste 10 Oeste 0 -- -- 75
2018-06-27 00:00:00 19.1 0 Calma 6 Sudoeste 0 -- -- 64
2018-06-26 23:00:00 21.8 5 Sudoeste 13 Sudoeste 0 -- -- 53
2018-06-26 22:00:00 24.2 8 Sudoeste 19 Oeste 0 -- -- 45
2018-06-26 21:00:00 26.1 10 Sudoeste 31 Sudoeste 0 -- -- 43
2018-06-26 20:00:00 27.6 15 Sudoeste 31 Sudoeste 0 -- -- 42
2018-06-26 19:00:00 28.8 16 Oeste 30 Oeste 0 -- -- 43
2018-06-26 18:00:00 29.8 13 Sudoeste 26 Oeste 0 -- -- 45
2018-06-26 17:00:00 29.4 13 Sudoeste 29 Oeste 0 -- -- 47
2018-06-26 16:00:00 29.9 13 Oeste 25 Oeste 0 -- -- 41
2018-06-26 15:00:00 29.7 9 Noroeste 19 Noroeste 0 -- -- 44
2018-06-26 14:00:00 29.2 7 Sudoeste 19 Sudoeste 0 -- -- 46
2018-06-26 13:00:00 28.3 5 Noroeste 15 Noroeste 0 -- -- 46
2018-06-26 12:00:00 26.9 4 Oeste 11 Nordeste 0 -- -- 45
2018-06-26 11:00:00 24.8 4 Noroeste 9 Oeste 0 -- -- 54
2018-06-26 10:00:00 22.4 6 Oeste 11 Oeste 0 -- -- 62
2018-06-26 09:00:00 20.1 3 Oeste 8 Oeste 0 -- -- 80
2018-06-26 08:00:00 15.7 0 Calma 5 Sudoeste 0 -- -- 94
2018-06-26 07:00:00 14.8 3 Sudoeste 9 Sur 0 -- -- 92
2018-06-26 06:00:00 15 3 Sur 4 Sudoeste 0 -- -- 91
2018-06-26 05:00:00 16.1 2 Sudoeste 5 Sur 0 -- -- 88
2018-06-26 04:00:00 17.4 2 Sudoeste 6 Sur 0 -- -- 85
2018-06-26 03:00:00 18.5 4 Sur 10 Sudeste 0 -- -- 82
2018-06-26 02:00:00 19.5 4 Sudeste 19 Sudoeste 0 -- -- 77
2018-06-26 01:00:00 20 10 Sudoeste 18 Sudoeste 0 -- -- 72
2018-06-26 00:00:00 18.4 2 Sudeste 9 Sudeste 0 -- -- 74
2018-06-25 23:00:00 18.8 4 Sur 15 Sur 0.2 -- -- 72
2018-06-25 22:00:00 21.5 10 Sudeste 32 Sudeste 0.2 -- -- 63
2018-06-25 21:00:00 26.8 9 Este 30 Nordeste 0 -- -- 35
2018-06-25 20:00:00 29 13 Nordeste 30 Nordeste 0 -- -- 35
2018-06-25 19:00:00 31.5 13 Oeste 25 Oeste 0 -- -- 44
2018-06-25 18:00:00 32 14 Oeste 28 Oeste 0 -- -- 41
2018-06-25 17:00:00 32 13 Oeste 26 Sudoeste 0 -- -- 40
2018-06-25 16:00:00 32 13 Oeste 25 Sudoeste 0 -- -- 37
2018-06-25 15:00:00 31.8 8 Oeste 17 Sudoeste 0 -- -- 35
2018-06-25 14:00:00 30.5 9 Oeste 17 Oeste 0 -- -- 38
2018-06-25 13:00:00 29.4 9 Oeste 18 Sudoeste 0 -- -- 40
2018-06-25 12:00:00 28 8 Sudoeste 18 Oeste 0 -- -- 45
2018-06-25 11:00:00 26.3 10 Oeste 20 Sudoeste 0 -- -- 52
2018-06-25 10:00:00 24.2 12 Sudoeste 22 Sudoeste 0 -- -- 57
2018-06-25 09:00:00 21.8 5 Sur 14 Sudoeste 0 -- -- 62
2018-06-25 08:00:00 17.2 4 Sur 9 Sudoeste 0 -- -- 73
2018-06-25 07:00:00 16.2 3 Sur 8 Sur 0 -- -- 74
2018-06-25 06:00:00 18.7 3 Sur 14 Oeste 0 -- -- 62
2018-06-25 05:00:00 20 2 Nordeste 9 Sur 0 -- -- 58
2018-06-25 04:00:00 20.6 4 Sur 7 Sudoeste 0 -- -- 54
2018-06-25 03:00:00 20.4 0 Calma 8 Sudeste 0 -- -- 56
2018-06-25 02:00:00 20.6 3 Este 8 Este 0 -- -- 55
2018-06-25 01:00:00 21 0 Calma 9 Sudeste 0 -- -- 57
2018-06-25 00:00:00 24.2 4 Sudeste 15 Sur 0 -- -- 48
2018-06-24 23:00:00 26.1 4 Sudeste 14 Este 0 -- -- 39
2018-06-24 22:00:00 27.1 4 Sur 9 Sudoeste 0 -- -- 39
2018-06-24 21:00:00 30.1 7 Norte 14 Norte 0 -- -- 34
2018-06-24 20:00:00 32.9 7 Norte 13 Norte 0 -- -- 26
2018-06-24 19:00:00 33.3 6 Nordeste 19 Noroeste 0 -- -- 24
2018-06-24 18:00:00 33.3 9 Norte 21 Oeste 0 -- -- 27
2018-06-24 17:00:00 33.7 5 Oeste 17 Sudoeste 0 -- -- 24
2018-06-24 16:00:00 33.1 7 Noroeste 20 Noroeste 0 -- -- 23
2018-06-24 15:00:00 32.2 8 Noroeste 18 Oeste 0 -- -- 29
2018-06-24 14:00:00 31.5 6 Oeste 24 Norte 0 -- -- 29
2018-06-24 13:00:00 30.6 8 Oeste 18 Oeste 0 -- -- 30
2018-06-24 12:00:00 29.4 7 Oeste 14 Noroeste 0 -- -- 33
2018-06-24 11:00:00 26.6 5 Noroeste 12 Sudoeste 0 -- -- 44
2018-06-24 10:00:00 23.8 2 Nordeste 4 Nordeste 0 -- -- 54
2018-06-24 09:00:00 18 0 Calma 4 Norte 0 -- -- 77
2018-06-24 08:00:00 14.2 2 Sur 5 Sur 0 -- -- 88
2018-06-24 07:00:00 13.1 0 Calma 4 Sur 0 -- -- 85
2018-06-24 06:00:00 13.8 0 Calma 6 Sur 0 -- -- 83
2018-06-24 05:00:00 14.2 3 Sur 6 Sur 0 -- -- 82
2018-06-24 04:00:00 15.1 0 Calma 4 Noroeste 0 -- -- 79
2018-06-24 03:00:00 16.9 2 Norte 6 Norte 0 -- -- 68
2018-06-24 02:00:00 16.7 3 Noroeste 9 Este 0 -- -- 70
2018-06-24 01:00:00 16.5 2 Noroeste 4 Norte 0 -- -- 75
2018-06-24 00:00:00 18.2 2 Noroeste 8 Norte 0 -- -- 72
2018-06-23 23:00:00 19.9 5 Este 15 Norte 0 -- -- 68
2018-06-23 22:00:00 23.7 0 Calma 11 Norte 0 -- -- 54
2018-06-23 21:00:00 26.1 0 Calma 10 Sudeste 0 -- -- 47
2018-06-23 20:00:00 26.2 3 Sur 12 Este 0 -- -- 44
2018-06-23 19:00:00 24.1 2 Sudoeste 22 Sudeste 0 -- -- 51
2018-06-23 18:00:00 25.6 5 Sudeste 32 Sudeste 0.4 -- -- 55
2018-06-23 17:00:00 30.5 4 Sudeste 14 Este 0 -- -- 28
2018-06-23 16:00:00 31.6 7 Nordeste 20 Norte 0 -- -- 28
2018-06-23 15:00:00 30.9 5 Norte 17 Nordeste 0 -- -- 30
2018-06-23 14:00:00 30.1 8 Norte 19 Nordeste 0 -- -- 33
2018-06-23 13:00:00 28.3 6 Nordeste 15 Norte 0 -- -- 42
2018-06-23 12:00:00 25.3 8 Nordeste 16 Nordeste 0 -- -- 53
2018-06-23 11:00:00 22.3 7 Nordeste 13 Nordeste 0 -- -- 63
2018-06-23 10:00:00 19.4 3 Norte 10 Nordeste 0 -- -- 75
2018-06-23 09:00:00 16.4 3 Nordeste 7 Norte 0 -- -- 87
2018-06-23 08:00:00 13.2 0 Calma 4 Norte 0 -- -- 96
2018-06-23 07:00:00 12.5 0 Calma 3 Sudoeste 0 -- -- 92
2018-06-23 06:00:00 12.8 2 Sur 5 Sur 0 -- -- 92
2018-06-23 05:00:00 13.3 0 Calma 4 Sur 0 -- -- 89
2018-06-23 04:00:00 14.9 0 Calma 4 Sudeste 0 -- -- 83
2018-06-23 03:00:00 17.2 0 Calma 6 Norte 0 -- -- 79
2018-06-23 02:00:00 18 4 Norte 9 Nordeste 0 -- -- 77
2018-06-23 01:00:00 19.1 5 Nordeste 11 Este 0 -- -- 69
2018-06-23 00:00:00 19 3 Sur 13 Norte 0 -- -- 75
2018-06-22 23:00:00 20.7 4 Sur 9 Sudeste 0 -- -- 68
2018-06-22 22:00:00 22.8 3 Sur 7 Sur 0 -- -- 61
2018-06-22 21:00:00 26.8 4 Sur 6 Sudeste 0 -- -- 50
2018-06-22 20:00:00 26.4 5 Noroeste 17 Oeste 0 -- -- 45
2018-06-22 19:00:00 27.8 11 Oeste 24 Oeste 0 -- -- 41
2018-06-22 18:00:00 31.1 6 Noroeste 20 Noroeste 0 -- -- 32
2018-06-22 17:00:00 30.6 10 Noroeste 26 Sudoeste 0 -- -- 36
2018-06-22 16:00:00 29.9 12 Oeste 24 Oeste 0 -- -- 38
2018-06-22 15:00:00 29.9 12 Oeste 21 Oeste 0 -- -- 36
2018-06-22 14:00:00 30.2 12 Sudeste 27 Sudeste 0 -- -- 27
2018-06-22 13:00:00 28.9 8 Norte 16 Nordeste 0 -- -- 31
2018-06-22 12:00:00 26.5 8 Nordeste 17 Norte 0 -- -- 42
2018-06-22 11:00:00 22 6 Nordeste 12 Nordeste 0 -- -- 69
2018-06-22 10:00:00 17.5 4 Norte 8 Norte 0 -- -- 88
2018-06-22 09:00:00 14.9 0 Calma 5 Norte 0 -- -- 98
2018-06-22 08:00:00 12.6 0 Calma 4 Oeste 0 -- -- 96
2018-06-22 07:00:00 12 3 Sur 6 Sudeste 0 -- -- 95
2018-06-22 06:00:00 12.2 0 Calma 8 Norte 0 -- -- 94
2018-06-22 05:00:00 12.9 3 Sur 4 Sudeste 0 -- -- 93
2018-06-22 04:00:00 13.9 0 Calma 6 Sur 0 -- -- 91
2018-06-22 03:00:00 14.8 3 Sur 6 Sur 0 -- -- 90
2018-06-22 02:00:00 15.6 2 Sudeste 6 Noroeste 0 -- -- 88
2018-06-22 01:00:00 16.8 2 Sudoeste 7 Sur 0 -- -- 87
2018-06-22 00:00:00 17.6 3 Sur 9 Sur 0 -- -- 85
2018-06-21 23:00:00 18.7 5 Sur 9 Sur 0 -- -- 82
2018-06-21 22:00:00 20.6 5 Sudeste 28 Oeste 0 -- -- 74
2018-06-21 21:00:00 23.5 3 Oeste 24 Nordeste 0 -- -- 54
2018-06-21 20:00:00 25.3 9 Nordeste 21 Nordeste 0 -- -- 49
2018-06-21 19:00:00 25.8 11 Norte 30 Noroeste 0 -- -- 53
2018-06-21 18:00:00 26.9 19 Norte 36 Noroeste 0 -- -- 49
2018-06-21 17:00:00 25.7 18 Noroeste 34 Noroeste 0 -- -- 48
2018-06-21 16:00:00 27.7 12 Noroeste 27 Noroeste 0 -- -- 50
2018-06-21 15:00:00 28.6 8 Oeste 17 Sudoeste 0 -- -- 35
2018-06-21 14:00:00 29.1 4 Sudeste 18 Sur 0 -- -- 33
2018-06-21 13:00:00 28.7 9 Sudoeste 17 Sudoeste 0 -- -- 35
2018-06-21 12:00:00 28 7 Sur 20 Sur 0 -- -- 37
2018-06-21 11:00:00 24.9 6 Sudeste 17 Sur 0 -- -- 44
2018-06-21 10:00:00 21.7 3 Nordeste 8 Norte 0 -- -- 67
2018-06-21 09:00:00 18.1 4 Norte 12 Norte 0 -- -- 77
2018-06-21 08:00:00 14.2 0 Calma 7 Norte 0 -- -- 90
2018-06-21 07:00:00 14.1 2 Sur 7 Sudeste 0 -- -- 89
2018-06-21 06:00:00 13.9 0 Calma 5 Sudeste 0 -- -- 88
2018-06-21 05:00:00 15.3 0 Calma 6 Sur 0 -- -- 83
2018-06-21 04:00:00 15.8 3 Sur 6 Sur 0 -- -- 82
2018-06-21 03:00:00 17.1 5 Sur 10 Sudoeste 0 -- -- 77
2018-06-21 02:00:00 18.3 6 Sudoeste 11 Sudoeste 0 -- -- 71
2018-06-21 01:00:00 19.8 4 Sudoeste 20 Noroeste 0 -- -- 64
2018-06-21 00:00:00 21.3 7 Oeste 22 Oeste 0 -- -- 59
2018-06-20 23:00:00 22.9 6 Oeste 17 Noroeste 0 -- -- 53
2018-06-20 22:00:00 24.1 8 Noroeste 13 Noroeste 0 -- -- 55
2018-06-20 21:00:00 26.5 5 Sudoeste 18 Sudoeste 0 -- -- 49
2018-06-20 20:00:00 28.3 10 Sudoeste 17 Sudoeste 0 -- -- 43
2018-06-20 19:00:00 29 10 Sudoeste 21 Sudoeste 0 -- -- 35
2018-06-20 18:00:00 25.6 13 Sudoeste 31 Sudoeste 0 -- -- 46
2018-06-20 17:00:00 29 5 Este 20 Noroeste 0 -- -- 33
2018-06-20 16:00:00 29.6 7 Nordeste 18 Norte 0 -- -- 30
2018-06-20 15:00:00 30 8 Nordeste 21 Norte 0 -- -- 30
2018-06-20 14:00:00 30.1 9 Noroeste 16 Norte 0 -- -- 32
2018-06-20 13:00:00 29.1 5 Oeste 13 Nordeste 0 -- -- 33
2018-06-20 12:00:00 27.9 5 Nordeste 12 Norte 0 -- -- 40
2018-06-20 11:00:00 26.7 2 Noroeste 9 Noroeste 0 -- -- 47
2018-06-20 10:00:00 23.9 3 Oeste 6 Sudoeste 0 -- -- 52
2018-06-20 09:00:00 19.6 0 Calma 5 Sur 0 -- -- 72
2018-06-20 08:00:00 14.3 0 Calma 5 Sur 0 -- -- 90
2018-06-20 07:00:00 12.6 3 Sur 5 Sudeste 0 -- -- 90
2018-06-20 06:00:00 13.2 2 Sur 6 Sudoeste 0 -- -- 86
2018-06-20 05:00:00 13.9 3 Sur 5 Sudeste 0 -- -- 85
2018-06-20 04:00:00 15 2 Oeste 6 Oeste 0 -- -- 82
2018-06-20 03:00:00 15.5 0 Calma 6 Sur 0 -- -- 78
2018-06-20 02:00:00 16.1 2 Sur 9 Este 0 -- -- 78
2018-06-20 01:00:00 16.5 4 Sur 7 Sur 0 -- -- 77
2018-06-20 00:00:00 17.3 4 Sur 6 Sur 0 -- -- 75
2018-06-19 23:00:00 19.2 5 Sur 6 Sudeste 0 -- -- 69
2018-06-19 22:00:00 23.9 0 Calma 8 Norte 0 -- -- 49
2018-06-19 21:00:00 26.1 5 Norte 15 Norte 0 -- -- 42
2018-06-19 20:00:00 27.4 9 Norte 20 Norte 0 -- -- 38
2018-06-19 19:00:00 28.5 10 Norte 19 Norte 0 -- -- 38
2018-06-19 18:00:00 28.8 8 Noroeste 22 Oeste 0 -- -- 32
2018-06-19 17:00:00 28.7 5 Norte 17 Norte 0 -- -- 36
2018-06-19 16:00:00 28.3 6 Norte 19 Noroeste 0 -- -- 37
2018-06-19 15:00:00 27.2 6 Sudoeste 18 Oeste 0 -- -- 40
2018-06-19 14:00:00 25.8 7 Norte 17 Noroeste 0 -- -- 45
2018-06-19 13:00:00 23.8 5 Nordeste 11 Nordeste 0 -- -- 51
2018-06-19 12:00:00 21.8 4 Norte 10 Norte 0 -- -- 58
2018-06-19 11:00:00 19.1 5 Nordeste 12 Noroeste 0 -- -- 69
2018-06-19 10:00:00 16.7 6 Nordeste 12 Nordeste 0 -- -- 76
2018-06-19 09:00:00 14.4 6 Nordeste 10 Norte 0 -- -- 84
2018-06-19 08:00:00 12.1 5 Nordeste 9 Nordeste 0 -- -- 92
2018-06-19 07:00:00 10.9 4 Norte 9 Norte 0 -- -- 92
2018-06-19 06:00:00 11.4 2 Norte 5 Norte 0 -- -- 88
2018-06-19 05:00:00 12.9 3 Nordeste 8 Norte 0 -- -- 88
2018-06-19 04:00:00 13.6 3 Norte 12 Nordeste 0 -- -- 85
2018-06-19 03:00:00 14.1 5 Nordeste 13 Norte 0 -- -- 84
2018-06-19 02:00:00 15.3 6 Nordeste 18 Nordeste 0 -- -- 79
2018-06-19 01:00:00 16.3 12 Nordeste 18 Nordeste 0 -- -- 76
2018-06-19 00:00:00 17.6 4 Este 10 Nordeste 0 -- -- 68
2018-06-18 23:00:00 19.3 5 Nordeste 12 Nordeste 0 -- -- 63
2018-06-18 22:00:00 21.7 8 Nordeste 20 Nordeste 0 -- -- 54
2018-06-18 21:00:00 24.4 13 Nordeste 25 Nordeste 0 -- -- 43
2018-06-18 20:00:00 26.2 13 Nordeste 28 Nordeste 0 -- -- 36
2018-06-18 19:00:00 27 14 Nordeste 29 Norte 0 -- -- 36
2018-06-18 18:00:00 27.3 16 Nordeste 29 Nordeste 0 -- -- 35
2018-06-18 17:00:00 27.4 17 Nordeste 28 Nordeste 0 -- -- 32
2018-06-18 16:00:00 26.8 17 Nordeste 27 Nordeste 0 -- -- 28
2018-06-18 15:00:00 26.2 14 Nordeste 27 Nordeste 0 -- -- 30
2018-06-18 14:00:00 25.4 16 Nordeste 25 Nordeste 0 -- -- 34
2018-06-18 13:00:00 24.5 14 Nordeste 30 Nordeste 0 -- -- 36
2018-06-18 12:00:00 23.5 15 Nordeste 33 Este 0 -- -- 38
2018-06-18 11:00:00 22.8 14 Nordeste 28 Este 0 -- -- 44
2018-06-18 10:00:00 21.7 11 Nordeste 22 Nordeste 0 -- -- 49
2018-06-18 09:00:00 16.2 4 Nordeste 9 Nordeste 0 -- -- 68
2018-06-18 08:00:00 10 0 Calma 2 Sur 0 -- -- 89
2018-06-18 07:00:00 9.8 0 Calma 5 Norte 0 -- -- 84
2018-06-18 06:00:00 10.6 0 Calma 2 Norte 0 -- -- 82
2018-06-18 05:00:00 12.2 0 Calma 5 Noroeste 0 -- -- 75
2018-06-18 04:00:00 13.8 4 Norte 10 Este 0 -- -- 69
2018-06-18 03:00:00 15 0 Calma 16 Este 0 -- -- 64
2018-06-18 02:00:00 14.4 0 Calma 10 Sudeste 0 -- -- 68
2018-06-18 01:00:00 14.1 5 Sudeste 10 Sudeste 0 -- -- 65
2018-06-18 00:00:00 14.7 3 Sur 5 Sur 0 -- -- 62
2018-06-17 23:00:00 17.5 0 Calma 5 Este 0 -- -- 57
2018-06-17 22:00:00 20.6 4 Nordeste 16 Nordeste 0 -- -- 44
2018-06-17 21:00:00 24.1 8 Nordeste 19 Nordeste 0 -- -- 40
2018-06-17 20:00:00 25.9 10 Nordeste 20 Nordeste 0 -- -- 33
2018-06-17 19:00:00 26.5 11 Nordeste 22 Norte 0 -- -- 32
2018-06-17 18:00:00 26.6 14 Nordeste 23 Nordeste 0 -- -- 37
2018-06-17 17:00:00 26.5 9 Nordeste 22 Nordeste 0 -- -- 35
2018-06-17 16:00:00 26.5 10 Nordeste 22 Nordeste 0 -- -- 36
2018-06-17 15:00:00 26 12 Nordeste 26 Norte 0 -- -- 38
2018-06-17 14:00:00 25.4 12 Norte 21 Nordeste 0 -- -- 39
2018-06-17 13:00:00 24.7 11 Nordeste 23 Norte 0 -- -- 39
2018-06-17 12:00:00 22.8 10 Nordeste 20 Norte 0 -- -- 45
2018-06-17 11:00:00 20.3 10 Nordeste 17 Nordeste 0 -- -- 53
2018-06-17 10:00:00 17.4 8 Nordeste 13 Nordeste 0 -- -- 62
2018-06-17 09:00:00 13.8 7 Nordeste 15 Nordeste 0 -- -- 76
2018-06-17 08:00:00 8.5 0 Calma 3 Sudeste 0 -- -- 95
2018-06-17 07:00:00 7.4 0 Calma 5 Sur 0 -- -- 90
2018-06-17 06:00:00 8.2 2 Sur 6 Norte 0 -- -- 90
2018-06-17 05:00:00 8.6 0 Calma 5 Sur 0 -- -- 87
2018-06-17 04:00:00 9.5 0 Calma 4 Sur 0 -- -- 86
2018-06-17 03:00:00 10.8 0 Calma 3 Noroeste 0 -- -- 82
2018-06-17 02:00:00 12.1 0 Calma 3 Noroeste 0 -- -- 75
2018-06-17 01:00:00 14.1 0 Calma 8 Sudeste 0 -- -- 65
2018-06-17 00:00:00 14.9 4 Sur 6 Sur 0 -- -- 62